createdAt,value
2019-02-18T00:02:07.503Z,5.5
2019-02-18T00:07:15.811Z,5.6
2019-02-18T00:12:21.040Z,5.9
2019-02-18T00:17:26.075Z,6
2019-02-18T00:22:31.141Z,5.6
2019-02-18T00:27:36.974Z,5.8
2019-02-18T00:32:41.307Z,5.6
2019-02-18T00:37:46.932Z,5.7
2019-02-18T00:42:53.262Z,5.6
2019-02-18T00:47:59.001Z,5.7
2019-02-18T00:53:05.154Z,5.8
2019-02-18T00:58:10.984Z,6
2019-02-18T01:03:16.224Z,5.6
2019-02-18T01:08:21.698Z,5.7
2019-02-18T01:13:26.932Z,5.6
2019-02-18T01:18:32.175Z,6
2019-02-18T01:23:38.285Z,5.8
2019-02-18T01:28:44.165Z,6.4
2019-02-18T01:33:49.796Z,5.4
2019-02-18T01:38:54.885Z,5.9
2019-02-18T01:43:59.485Z,6.1
2019-02-18T01:49:04.816Z,6.1
2019-02-18T01:54:10.424Z,5.8
2019-02-18T01:59:15.528Z,6.2
2019-02-18T02:04:21.301Z,5.7
2019-02-18T02:09:26.765Z,5.6
2019-02-18T02:14:32.035Z,6
2019-02-18T02:19:37.140Z,5.8
2019-02-18T02:24:42.735Z,5.9
2019-02-18T02:29:47.804Z,6
2019-02-18T02:34:53.815Z,6
2019-02-18T02:39:58.188Z,6
2019-02-18T02:45:03.786Z,5.8
2019-02-18T02:50:09.346Z,6.1
2019-02-18T02:55:13.666Z,6
2019-02-18T03:00:19.168Z,6.3
2019-02-18T03:05:25.763Z,6.3
2019-02-18T03:10:30.695Z,6.1
2019-02-18T03:15:36.673Z,6.2
2019-02-18T03:20:42.120Z,5.8
2019-02-18T03:25:46.481Z,5.9
2019-02-18T03:30:51.601Z,5.9
2019-02-18T03:35:57.536Z,6.5
2019-02-18T03:41:04.395Z,6.2
2019-02-18T03:46:09.980Z,6.1
2019-02-18T03:51:15.874Z,6.4
2019-02-18T03:56:21.663Z,6.5
2019-02-18T04:01:26.750Z,5.8
2019-02-18T04:06:32.131Z,6.1
2019-02-18T04:11:37.388Z,6.5
2019-02-18T04:16:43.376Z,6
2019-02-18T04:21:47.262Z,5.8
2019-02-18T04:26:53.051Z,5.8
2019-02-18T04:31:58.653Z,6
2019-02-18T04:37:04.564Z,6.4
2019-02-18T04:42:10.085Z,6.6
2019-02-18T04:47:15.914Z,6.3
2019-02-18T04:52:21.042Z,5.8
2019-02-18T04:57:26.358Z,5.4
2019-02-18T05:02:32.089Z,5.6
2019-02-18T05:07:38.194Z,5.7
2019-02-18T05:12:43.367Z,6.4
2019-02-18T05:17:48.553Z,6.6
2019-02-18T05:22:54.209Z,6.4
2019-02-18T05:27:59.401Z,7.2
2019-02-18T05:33:04.591Z,7.8
2019-02-18T05:38:09.717Z,7.3
2019-02-18T05:43:14.925Z,6.9
2019-02-18T05:48:20.554Z,7.2
2019-02-18T05:53:26.079Z,7.7
2019-02-18T05:58:31.221Z,8.4
2019-02-18T06:03:36.465Z,7.5
2019-02-18T06:08:41.858Z,6.7
2019-02-18T06:13:47.619Z,7.2
2019-02-18T06:18:53.368Z,6.1
2019-02-18T06:23:58.637Z,7.5
2019-02-18T06:29:02.898Z,6.2
2019-02-18T06:34:10.134Z,6
2019-02-18T06:39:15.309Z,5.7
2019-02-18T06:44:20.831Z,5
2019-02-18T06:49:26.987Z,4.6
2019-02-18T06:54:32.366Z,3.9
2019-02-18T06:59:37.980Z,3.8
2019-02-18T07:04:43.694Z,3.7
2019-02-18T07:09:52.289Z,3.2
2019-02-18T07:14:57.620Z,3.1
2019-02-18T07:20:03.760Z,2.9
2019-02-18T07:25:09.429Z,3.1
2019-02-18T07:30:15.196Z,3.2
2019-02-18T07:35:20.651Z,2.9
2019-02-18T07:40:25.843Z,3
2019-02-18T07:45:31.301Z,2.8
2019-02-18T07:50:37.272Z,3.6
2019-02-18T07:55:41.356Z,4.6
2019-02-18T08:00:46.488Z,4.8
2019-02-18T08:05:52.634Z,4.8
2019-02-18T08:10:58.663Z,5.2
2019-02-18T08:16:03.119Z,5.5
2019-02-18T08:21:08.744Z,6.4
2019-02-18T08:26:14.682Z,7.8
2019-02-18T08:31:20.599Z,9.4
2019-02-18T08:36:25.661Z,11
2019-02-18T08:41:31.079Z,10.2
2019-02-18T08:46:37.006Z,9.8
2019-02-18T08:51:43.282Z,8.6
2019-02-18T08:56:48.593Z,8.9
2019-02-18T09:01:54.690Z,7.8
2019-02-18T09:07:00.359Z,7.8
2019-02-18T09:12:04.822Z,6.7
2019-02-18T09:17:09.977Z,5.9
2019-02-18T09:22:16.457Z,5.9
2019-02-18T09:27:22.508Z,5.4
2019-02-18T09:32:28.379Z,5.9
2019-02-18T09:37:34.357Z,5.4
2019-02-18T09:42:39.839Z,4.9
2019-02-18T09:47:45.380Z,5.7
2019-02-18T09:52:51.341Z,5.8
2019-02-18T09:57:56.343Z,5.1
2019-02-18T10:03:02.371Z,4.8
2019-02-18T10:08:07.785Z,4.6
2019-02-18T10:13:13.438Z,4.6
2019-02-18T10:18:19.110Z,4.5
2019-02-18T10:23:25.383Z,4.4
2019-02-18T10:28:31.377Z,4
2019-02-18T10:33:35.940Z,3.8
2019-02-18T10:38:41.557Z,3.8
2019-02-18T10:43:46.988Z,3.6
2019-02-18T10:48:52.417Z,3.7
2019-02-18T10:53:58.497Z,3.3
2019-02-18T10:59:02.770Z,3.2
2019-02-18T11:04:08.596Z,3.3
2019-02-18T11:09:14.113Z,2.9
2019-02-18T11:14:19.623Z,2.5
2019-02-18T11:19:25.789Z,2.6
2019-02-18T11:24:31.723Z,2.5
2019-02-18T11:29:37.161Z,2.6
2019-02-18T11:34:43.162Z,2.2
2019-02-18T11:39:49.005Z,2.2
2019-02-18T11:44:54.870Z,2.4
2019-02-18T11:50:01.545Z,2.2
2019-02-18T11:55:07.436Z,1.9
2019-02-18T12:00:12.685Z,1.9
2019-02-18T12:05:18.462Z,1.9
2019-02-18T12:10:24.484Z,1.8
2019-02-18T12:15:29.610Z,1.7
2019-02-18T12:20:34.849Z,1.6
2019-02-18T12:25:41.449Z,1.4
2019-02-18T12:30:41.893Z,1.3
2019-02-18T12:35:47.869Z,1.5
2019-02-18T12:40:53.888Z,1.4
2019-02-18T12:45:59.892Z,1.5
2019-02-18T12:51:05.815Z,1.2
2019-02-18T12:56:11.517Z,1.2
2019-02-18T13:01:17.044Z,1.2
2019-02-18T13:06:22.390Z,1.2
2019-02-18T13:11:28.272Z,1.1
2019-02-18T13:16:34.271Z,1.1
2019-02-18T13:21:39.751Z,1
2019-02-18T13:26:45.174Z,1.1
2019-02-18T13:31:49.412Z,1
2019-02-18T13:36:54.963Z,1.1
2019-02-18T13:42:08.260Z,1.1
2019-02-18T13:47:03.700Z,1
2019-02-18T13:52:08.659Z,1
2019-02-18T13:57:13.912Z,0.9
2019-02-18T14:02:18.972Z,1
2019-02-18T14:07:24.538Z,0.9
2019-02-18T14:12:31.645Z,0.9
2019-02-18T14:17:37.140Z,0.9
2019-02-18T14:22:42.160Z,0.9
2019-02-18T14:27:48.601Z,1
2019-02-18T14:32:54.333Z,0.8
2019-02-18T14:38:00.656Z,0.8
2019-02-18T14:43:06.522Z,0.8
2019-02-18T14:48:12.294Z,0.9
2019-02-18T14:53:17.506Z,5.1
2019-02-18T14:58:23.835Z,5.8
2019-02-18T15:03:29.256Z,8.6
2019-02-18T15:08:35.167Z,6
2019-02-18T15:13:36.060Z,4.9
2019-02-18T15:18:41.804Z,4.5
2019-02-18T15:23:46.893Z,3.9
2019-02-18T15:28:48.130Z,3.9
2019-02-18T15:33:53.525Z,3.8
2019-02-18T15:38:57.616Z,3.4
2019-02-18T15:44:03.300Z,3
2019-02-18T15:49:07.715Z,2.9
2019-02-18T15:54:13.142Z,2.7
2019-02-18T15:59:18.674Z,2.7
2019-02-18T16:04:23.813Z,2.4
2019-02-18T16:09:30.609Z,2.9
2019-02-18T16:14:37.615Z,2.7
2019-02-18T16:19:43.485Z,2.2
2019-02-18T16:24:49.568Z,2.7
2019-02-18T16:29:56.997Z,2.5
2019-02-18T16:35:02.836Z,2.5
2019-02-18T16:40:10.182Z,2.8
2019-02-18T16:45:15.475Z,2.4
2019-02-18T16:50:19.950Z,2.7
2019-02-18T16:55:24.288Z,3.8
2019-02-18T17:00:25.961Z,5
2019-02-18T17:05:30.892Z,4.2
2019-02-18T17:10:36.257Z,4
2019-02-18T17:15:41.233Z,4.5
2019-02-18T17:20:46.513Z,4.2
2019-02-18T17:25:51.656Z,4.5
2019-02-18T17:30:56.920Z,5.4
2019-02-18T17:36:03.233Z,9.2
2019-02-18T17:41:08.328Z,13.4
2019-02-18T17:46:13.699Z,12.6
2019-02-18T17:51:19.375Z,11.5
2019-02-18T17:56:25.320Z,11.4
2019-02-18T18:01:31.029Z,11.8
2019-02-18T18:06:36.167Z,11.8
2019-02-18T18:11:41.512Z,11.1
2019-02-18T18:16:47.527Z,11.1
2019-02-18T18:21:53.405Z,11.2
2019-02-18T18:26:58.993Z,10.8
2019-02-18T18:32:05.043Z,10.5
2019-02-18T18:37:11.011Z,10.2
2019-02-18T18:42:16.995Z,10.3
2019-02-18T18:47:23.272Z,9.8
2019-02-18T18:52:29.157Z,10.5
2019-02-18T18:57:34.061Z,17.5
2019-02-18T19:02:39.644Z,25.4
2019-02-18T19:07:45.427Z,24
2019-02-18T19:12:54.055Z,22.1
2019-02-18T19:17:59.570Z,20.3
2019-02-18T19:23:04.769Z,19.3
2019-02-18T19:28:10.158Z,18.2
2019-02-18T19:33:16.135Z,17.4
2019-02-18T19:38:21.805Z,15.7
2019-02-18T19:43:28.095Z,11.7
2019-02-18T19:48:33.764Z,9.9
2019-02-18T19:53:39.529Z,8.6
2019-02-18T19:58:45.164Z,6.8
2019-02-18T20:03:51.224Z,6
2019-02-18T20:08:56.944Z,4.8
2019-02-18T20:14:02.565Z,5.2
2019-02-18T20:19:09.770Z,4.9
2019-02-18T20:24:15.621Z,4.3
2019-02-18T20:29:21.619Z,4.4
2019-02-18T20:34:27.249Z,3.9
2019-02-18T20:39:32.824Z,3.9
2019-02-18T20:44:38.600Z,3.9
2019-02-18T20:49:44.476Z,3.7
2019-02-18T20:54:50.649Z,3.4
2019-02-18T20:59:56.346Z,3.5
2019-02-18T21:05:01.644Z,3.9
2019-02-18T21:10:07.021Z,3.5
2019-02-18T21:15:12.717Z,3.6
2019-02-18T21:20:18.275Z,4
2019-02-18T21:25:25.193Z,4
2019-02-18T21:30:30.227Z,5.2
2019-02-18T21:35:35.983Z,6
2019-02-18T21:40:41.464Z,6.5
2019-02-18T21:45:47.463Z,6.1
2019-02-18T21:50:53.059Z,6.3
2019-02-18T21:55:58.472Z,5.8
2019-02-18T22:01:03.988Z,5.4
2019-02-18T22:06:09.383Z,4.9
2019-02-18T22:11:14.968Z,4.7
2019-02-18T22:16:20.685Z,4.4
2019-02-18T22:21:26.116Z,4.1
2019-02-18T22:26:31.317Z,4.3
2019-02-18T22:31:37.565Z,4.4
2019-02-18T22:36:43.964Z,4.7
2019-02-18T22:41:49.472Z,4.7
2019-02-18T22:46:54.566Z,5.1
2019-02-18T22:52:00.158Z,4.9
2019-02-18T22:57:06.387Z,4.7
2019-02-18T23:02:11.309Z,4.5
2019-02-18T23:07:16.508Z,4.1
2019-02-18T23:12:21.567Z,4.5
2019-02-18T23:17:26.214Z,5.1
2019-02-18T23:22:31.754Z,4.3
2019-02-18T23:27:37.373Z,4.8
2019-02-18T23:32:37.915Z,4.8
2019-02-18T23:37:42.998Z,4.8
2019-02-18T23:42:48.078Z,5
2019-02-18T23:47:53.160Z,4.6
2019-02-18T23:52:58.740Z,4.4
2019-02-18T23:58:04.564Z,4.5
